createdAt,value
2023-04-15T00:01:08.705Z,2.35
2023-04-15T00:03:35.276Z,2.48
2023-04-15T00:06:01.868Z,2.48
2023-04-15T00:08:28.269Z,2.57
2023-04-15T00:10:54.574Z,2.37
2023-04-15T00:13:20.980Z,2.45
2023-04-15T00:15:47.314Z,2.44
2023-04-15T00:18:13.671Z,2.57
2023-04-15T00:20:39.974Z,2.29
2023-04-15T00:23:06.303Z,2.63
2023-04-15T00:25:32.641Z,2.25
2023-04-15T00:27:59.014Z,2.42
2023-04-15T00:30:25.352Z,2.37
2023-04-15T00:32:51.710Z,2.34
2023-04-15T00:35:18.058Z,2.47
2023-04-15T00:37:46.066Z,2.30
2023-04-15T00:40:12.870Z,2.41
2023-04-15T00:42:39.192Z,2.33
2023-04-15T00:45:05.564Z,2.20
2023-04-15T00:47:31.921Z,2.48
2023-04-15T00:49:58.269Z,2.40
2023-04-15T00:52:24.611Z,2.20
2023-04-15T00:54:50.967Z,2.34
2023-04-15T00:57:17.337Z,2.32
2023-04-15T00:59:43.665Z,2.22
2023-04-15T01:02:10.208Z,2.28
2023-04-15T01:04:36.702Z,2.14
2023-04-15T01:07:03.119Z,2.33
2023-04-15T01:09:29.506Z,2.24
2023-04-15T01:11:55.873Z,2.30
2023-04-15T01:14:22.210Z,2.16
2023-04-15T01:16:48.519Z,2.22
2023-04-15T01:19:14.871Z,2.17
2023-04-15T01:21:41.310Z,2.11
2023-04-15T01:24:07.604Z,2.04
2023-04-15T01:26:33.902Z,2.05
2023-04-15T01:29:00.606Z,2.13
2023-04-15T01:31:27.220Z,2.11
2023-04-15T01:33:53.568Z,2.08
2023-04-15T01:36:19.891Z,1.93
2023-04-15T01:38:46.245Z,1.95
2023-04-15T01:41:12.605Z,1.90
2023-04-15T01:43:38.968Z,1.91
2023-04-15T01:46:05.272Z,1.97
2023-04-15T01:48:31.627Z,1.87
2023-04-15T01:50:57.958Z,1.82
2023-04-15T01:53:24.426Z,1.80
2023-04-15T01:55:50.776Z,1.89
2023-04-15T01:58:17.093Z,1.83
2023-04-15T02:00:43.451Z,1.78
2023-04-15T02:03:09.957Z,1.88
2023-04-15T02:05:36.302Z,2.03
2023-04-15T02:08:02.621Z,1.93
2023-04-15T02:10:28.998Z,1.81
2023-04-15T02:12:55.334Z,1.82
2023-04-15T02:15:21.644Z,1.85
2023-04-15T02:17:48.049Z,1.74
2023-04-15T02:20:14.360Z,1.71
2023-04-15T02:22:40.720Z,1.75
2023-04-15T02:25:07.093Z,1.66
2023-04-15T02:27:33.431Z,1.63
2023-04-15T02:29:59.807Z,1.61
2023-04-15T02:32:26.228Z,1.60
2023-04-15T02:34:52.621Z,1.67
2023-04-15T02:37:18.945Z,1.53
2023-04-15T02:39:45.270Z,1.55
2023-04-15T02:42:11.613Z,1.64
2023-04-15T02:44:37.930Z,1.59
2023-04-15T02:47:04.289Z,1.73
2023-04-15T02:49:30.651Z,1.59
2023-04-15T02:51:57.134Z,1.48
2023-04-15T02:54:23.453Z,1.63
2023-04-15T02:56:49.799Z,1.46
2023-04-15T02:59:16.102Z,1.61
2023-04-15T03:01:42.475Z,1.50
2023-04-15T03:04:08.957Z,1.58
2023-04-15T03:06:35.540Z,1.74
2023-04-15T03:09:02.156Z,1.57
2023-04-15T03:11:28.712Z,1.65
2023-04-15T03:13:55.095Z,1.70
2023-04-15T03:16:21.583Z,1.56
2023-04-15T03:18:48.011Z,1.57
2023-04-15T03:21:14.315Z,1.53
2023-04-15T03:23:40.681Z,1.70
2023-04-15T03:26:07.022Z,1.52
2023-04-15T03:28:33.315Z,1.45
2023-04-15T03:30:59.666Z,1.59
2023-04-15T03:33:26.093Z,1.60
2023-04-15T03:35:52.414Z,1.53
2023-04-15T03:38:18.725Z,1.39
2023-04-15T03:40:45.081Z,1.41
2023-04-15T03:43:11.438Z,1.58
2023-04-15T03:45:37.860Z,1.45
2023-04-15T03:48:16.442Z,1.34
2023-04-15T03:50:43.863Z,1.41
2023-04-15T03:53:10.159Z,1.27
2023-04-15T03:55:36.466Z,1.40
2023-04-15T03:58:02.823Z,1.13
2023-04-15T04:00:29.122Z,1.09
2023-04-15T04:02:55.573Z,1.06
2023-04-15T04:05:22.120Z,1.25
2023-04-15T04:07:48.442Z,1.08
2023-04-15T04:10:14.753Z,0.99
2023-04-15T04:12:41.135Z,1.06
2023-04-15T04:15:07.480Z,0.98
2023-04-15T04:17:33.847Z,0.97
2023-04-15T04:20:00.244Z,0.77
2023-04-15T04:22:26.543Z,0.93
2023-04-15T04:24:52.877Z,0.85
2023-04-15T04:27:19.232Z,0.82
2023-04-15T04:29:45.589Z,0.82
2023-04-15T04:32:12.040Z,0.77
2023-04-15T04:34:38.431Z,0.84
2023-04-15T04:37:04.779Z,0.79
2023-04-15T04:39:31.132Z,0.81
2023-04-15T04:41:57.436Z,0.65
2023-04-15T04:44:23.791Z,0.64
2023-04-15T04:46:50.157Z,0.80
2023-04-15T04:49:16.458Z,0.64
2023-04-15T04:51:42.740Z,0.71
2023-04-15T04:54:09.080Z,0.60
2023-04-15T04:56:35.403Z,0.58
2023-04-15T04:59:01.862Z,0.66
2023-04-15T05:01:28.460Z,0.63
2023-04-15T05:03:54.941Z,0.61
2023-04-15T05:06:21.321Z,0.58
2023-04-15T05:08:47.664Z,0.57
2023-04-15T05:11:14.029Z,0.57
2023-04-15T05:13:40.407Z,0.48
2023-04-15T05:16:06.833Z,0.51
2023-04-15T05:18:33.307Z,0.55
2023-04-15T05:20:59.681Z,0.56
2023-04-15T05:23:25.990Z,0.50
2023-04-15T05:25:52.354Z,0.63
2023-04-15T05:28:18.716Z,0.56
2023-04-15T05:30:45.021Z,0.58
2023-04-15T05:33:11.363Z,0.49
2023-04-15T05:35:37.679Z,0.57
2023-04-15T05:38:04.038Z,0.51
2023-04-15T05:40:30.335Z,0.56
2023-04-15T05:42:56.624Z,0.61
2023-04-15T05:45:23.001Z,0.61
2023-04-15T05:47:49.360Z,0.54
2023-04-15T05:50:15.727Z,0.45
2023-04-15T05:52:42.125Z,0.52
2023-04-15T05:55:08.457Z,0.46
2023-04-15T05:57:34.820Z,0.49
2023-04-15T06:00:01.144Z,0.52
2023-04-15T06:02:27.591Z,0.50
2023-04-15T06:04:54.085Z,0.51
2023-04-15T06:07:20.463Z,0.52
2023-04-15T06:09:46.791Z,0.45
2023-04-15T06:12:13.108Z,0.50
2023-04-15T06:14:39.509Z,0.60
2023-04-15T06:17:05.824Z,0.44
2023-04-15T06:19:32.188Z,0.55
2023-04-15T06:21:58.609Z,0.54
2023-04-15T06:24:24.974Z,0.59
2023-04-15T06:26:51.527Z,0.54
2023-04-15T06:29:17.910Z,0.50
2023-04-15T06:31:44.249Z,0.48
2023-04-15T06:34:10.594Z,0.61
2023-04-15T06:36:36.884Z,0.66
2023-04-15T06:39:03.425Z,0.62
2023-04-15T06:41:29.953Z,0.65
2023-04-15T06:43:56.262Z,0.70
2023-04-15T06:46:22.686Z,0.69
2023-04-15T06:48:49.030Z,0.79
2023-04-15T06:51:15.324Z,0.75
2023-04-15T06:53:41.698Z,0.75
2023-04-15T06:56:08.029Z,0.76
2023-04-15T06:58:34.366Z,0.82
2023-04-15T07:01:00.745Z,0.87
2023-04-15T07:03:27.192Z,0.97
2023-04-15T07:05:53.572Z,0.90
2023-04-15T07:08:19.932Z,0.98
2023-04-15T07:10:46.249Z,0.93
2023-04-15T07:13:12.599Z,1.08
2023-04-15T07:15:38.954Z,1.06
2023-04-15T07:18:07.408Z,1.07
2023-04-15T07:20:33.783Z,1.09
2023-04-15T07:23:00.176Z,1.18
2023-04-15T07:25:26.467Z,1.19
2023-04-15T07:27:52.827Z,1.18
2023-04-15T07:30:19.216Z,1.19
2023-04-15T07:32:45.577Z,1.10
2023-04-15T07:35:11.932Z,1.22
2023-04-15T07:37:38.258Z,1.16
2023-04-15T07:40:04.565Z,1.22
2023-04-15T07:42:30.870Z,1.27
2023-04-15T07:44:57.243Z,1.36
2023-04-15T07:47:23.648Z,1.30
2023-04-15T07:49:49.978Z,1.41
2023-04-15T07:52:16.275Z,1.31
2023-04-15T07:54:42.635Z,1.36
2023-04-15T07:57:09.006Z,1.30
2023-04-15T07:59:35.390Z,1.31
2023-04-15T08:02:01.791Z,1.48
2023-04-15T08:04:28.279Z,1.50
2023-04-15T08:06:54.693Z,1.57
2023-04-15T08:09:21.093Z,1.61
2023-04-15T08:11:47.530Z,1.70
2023-04-15T08:14:13.868Z,1.55
2023-04-15T08:16:40.223Z,1.68
2023-04-15T08:19:06.595Z,1.71
2023-04-15T08:21:32.976Z,1.70
2023-04-15T08:23:59.335Z,1.72
2023-04-15T08:26:25.703Z,1.67
2023-04-15T08:28:52.010Z,1.70
2023-04-15T08:31:18.493Z,1.65
2023-04-15T08:33:45.078Z,1.90
2023-04-15T08:36:11.407Z,2.03
2023-04-15T08:38:37.731Z,1.98
2023-04-15T08:41:04.084Z,2.06
2023-04-15T08:43:30.394Z,1.92
2023-04-15T08:45:56.723Z,1.85
2023-04-15T08:48:23.082Z,1.92
2023-04-15T08:50:49.396Z,2.09
2023-04-15T08:53:15.721Z,1.99
2023-04-15T08:55:42.058Z,2.07
2023-04-15T08:58:08.405Z,2.15
2023-04-15T09:00:34.834Z,2.03
2023-04-15T09:03:01.222Z,1.96
2023-04-15T09:05:27.584Z,2.12
2023-04-15T09:07:54.107Z,2.11
2023-04-15T09:10:20.484Z,2.25
2023-04-15T09:12:46.775Z,2.32
2023-04-15T09:15:13.094Z,2.30
2023-04-15T09:17:39.511Z,2.23
2023-04-15T09:20:05.857Z,2.33
2023-04-15T09:22:32.182Z,2.08
2023-04-15T09:24:58.536Z,2.19
2023-04-15T09:27:24.857Z,2.42
2023-04-15T09:29:51.246Z,2.32
2023-04-15T09:32:17.655Z,2.34
2023-04-15T09:34:44.002Z,2.46
2023-04-15T09:37:10.539Z,2.33
2023-04-15T09:39:36.923Z,2.12
2023-04-15T09:42:03.293Z,1.96
2023-04-15T09:44:29.643Z,1.91
2023-04-15T09:46:55.992Z,2.16
2023-04-15T09:49:22.356Z,2.01
2023-04-15T09:52:01.439Z,2.02
2023-04-15T09:54:31.272Z,1.82
2023-04-15T09:56:57.593Z,2.18
2023-04-15T09:59:23.920Z,1.98
2023-04-15T10:01:50.370Z,1.86
2023-04-15T10:04:16.868Z,2.03
2023-04-15T10:06:43.240Z,1.85
2023-04-15T10:09:09.592Z,1.78
2023-04-15T10:11:35.952Z,1.84
2023-04-15T10:14:02.509Z,1.91
2023-04-15T10:16:28.938Z,1.65
2023-04-15T10:18:55.248Z,1.86
2023-04-15T10:21:21.705Z,1.94
2023-04-15T10:23:48.063Z,1.77
2023-04-15T10:26:14.434Z,1.55
2023-04-15T10:28:40.766Z,1.73
2023-04-15T10:31:07.156Z,1.74
2023-04-15T10:33:33.533Z,1.72
2023-04-15T10:35:59.952Z,1.76
2023-04-15T10:38:26.260Z,1.63
2023-04-15T10:40:52.549Z,1.70
2023-04-15T10:43:18.864Z,1.65
2023-04-15T10:45:45.193Z,1.70
2023-04-15T10:48:11.669Z,1.87
2023-04-15T10:50:38.073Z,2.21
2023-04-15T10:53:04.403Z,2.33
2023-04-15T10:55:30.729Z,2.56
2023-04-15T10:57:57.138Z,2.53
2023-04-15T11:00:23.490Z,2.78
2023-04-15T11:02:50.049Z,3.02
2023-04-15T11:05:16.489Z,2.55
2023-04-15T11:07:42.801Z,2.69
2023-04-15T11:10:09.148Z,2.46
2023-04-15T11:12:35.476Z,2.65
2023-04-15T11:15:01.846Z,2.51
2023-04-15T11:17:28.190Z,2.58
2023-04-15T11:19:54.541Z,2.41
2023-04-15T11:22:20.850Z,2.38
2023-04-15T11:24:47.356Z,2.39
2023-04-15T11:27:13.697Z,2.37
2023-04-15T11:29:40.015Z,2.12
2023-04-15T11:32:06.400Z,2.32
2023-04-15T11:34:34.114Z,2.21
2023-04-15T11:37:01.310Z,2.20
2023-04-15T11:39:27.667Z,2.28
2023-04-15T11:41:53.983Z,2.22
2023-04-15T11:44:20.474Z,2.17
2023-04-15T11:46:46.838Z,2.29
2023-04-15T11:49:13.175Z,2.12
2023-04-15T11:51:39.564Z,2.06
2023-04-15T11:54:06.066Z,2.11
2023-04-15T11:56:32.575Z,1.91
2023-04-15T11:58:58.899Z,2.08
2023-04-15T12:01:25.209Z,2.13
2023-04-15T12:03:51.645Z,2.25
2023-04-15T12:06:18.133Z,2.22
2023-04-15T12:08:44.507Z,2.18
2023-04-15T12:11:10.831Z,2.20
2023-04-15T12:13:37.190Z,2.09
2023-04-15T12:16:03.567Z,2.32
2023-04-15T12:18:29.921Z,1.88
2023-04-15T12:20:56.293Z,2.21
2023-04-15T12:23:22.653Z,1.95
2023-04-15T12:25:48.971Z,2.03
2023-04-15T12:28:15.400Z,1.96
2023-04-15T12:30:41.788Z,2.04
2023-04-15T12:33:08.124Z,1.84
2023-04-15T12:35:34.521Z,1.89
2023-04-15T12:38:00.880Z,1.84
2023-04-15T12:40:27.257Z,1.92
2023-04-15T12:42:53.595Z,1.76
2023-04-15T12:45:19.912Z,1.78
2023-04-15T12:47:46.281Z,1.79
2023-04-15T12:50:12.666Z,1.84
2023-04-15T12:52:39.043Z,1.79
2023-04-15T12:55:05.436Z,1.88
2023-04-15T12:57:31.746Z,1.71
2023-04-15T12:59:58.098Z,1.67
2023-04-15T13:02:24.666Z,1.84
2023-04-15T13:04:51.210Z,1.73
2023-04-15T13:07:17.585Z,1.74
2023-04-15T13:09:43.952Z,1.65
2023-04-15T13:12:10.288Z,1.57
2023-04-15T13:14:36.656Z,1.92
2023-04-15T13:17:03.036Z,2.27
2023-04-15T13:19:29.394Z,2.10
2023-04-15T13:21:55.745Z,1.88
2023-04-15T13:24:22.174Z,1.85
2023-04-15T13:26:50.194Z,1.81
2023-04-15T13:29:16.836Z,1.77
2023-04-15T13:31:43.225Z,1.77
2023-04-15T13:34:09.654Z,1.77
2023-04-15T13:36:35.963Z,1.71
2023-04-15T13:39:02.255Z,1.66
2023-04-15T13:41:28.567Z,1.76
2023-04-15T13:43:54.900Z,1.55
2023-04-15T13:46:21.271Z,1.59
2023-04-15T13:48:47.639Z,1.60
2023-04-15T13:51:14.097Z,1.58
2023-04-15T13:53:40.452Z,1.76
2023-04-15T13:56:06.832Z,1.61
2023-04-15T13:58:33.155Z,1.50
2023-04-15T14:00:59.534Z,1.47
2023-04-15T14:03:26.001Z,1.69
2023-04-15T14:05:52.478Z,1.56
2023-04-15T14:08:18.783Z,1.58
2023-04-15T14:10:46.135Z,1.53
2023-04-15T14:13:12.463Z,1.65
2023-04-15T14:15:38.794Z,1.62
2023-04-15T14:18:05.168Z,1.73
2023-04-15T14:20:31.660Z,1.76
2023-04-15T14:22:57.963Z,1.63
2023-04-15T14:25:33.297Z,1.75
2023-04-15T14:28:00.502Z,1.69
2023-04-15T14:30:26.880Z,1.72
2023-04-15T14:32:54.536Z,1.73
2023-04-15T14:35:20.924Z,1.85
2023-04-15T14:37:47.299Z,1.64
2023-04-15T14:40:13.693Z,1.81
2023-04-15T14:42:40.011Z,1.53
2023-04-15T14:45:06.408Z,1.61
2023-04-15T14:47:32.733Z,1.73
2023-04-15T14:49:59.087Z,1.70
2023-04-15T14:52:25.416Z,1.72
2023-04-15T14:54:51.708Z,1.61
2023-04-15T14:57:18.003Z,1.61
2023-04-15T14:59:44.328Z,1.76
2023-04-15T15:02:11.541Z,1.66
2023-04-15T15:04:39.339Z,1.87
2023-04-15T15:07:05.686Z,1.78
2023-04-15T15:09:33.857Z,1.80
2023-04-15T15:12:01.224Z,1.81
2023-04-15T15:14:27.620Z,1.62
2023-04-15T15:16:53.982Z,1.76
2023-04-15T15:19:20.367Z,1.85
2023-04-15T15:21:46.719Z,1.76
2023-04-15T15:24:13.036Z,1.75
2023-04-15T15:26:39.392Z,1.72
2023-04-15T15:29:05.968Z,1.90
2023-04-15T15:31:32.528Z,1.86
2023-04-15T15:33:58.902Z,1.92
2023-04-15T15:36:25.293Z,2.01
2023-04-15T15:38:51.598Z,1.87
2023-04-15T15:41:17.910Z,1.84
2023-04-15T15:43:44.241Z,1.88
2023-04-15T15:46:10.607Z,2.01
2023-04-15T15:48:36.978Z,2.00
2023-04-15T15:51:03.280Z,2.13
2023-04-15T15:53:29.755Z,1.97
2023-04-15T15:55:56.132Z,2.04
2023-04-15T15:58:22.609Z,2.03
2023-04-15T16:00:49.024Z,2.09
2023-04-15T16:03:15.582Z,2.07
2023-04-15T16:05:42.081Z,2.11
2023-04-15T16:08:08.434Z,2.08
2023-04-15T16:10:34.770Z,2.05
2023-04-15T16:13:01.141Z,2.08
2023-04-15T16:15:27.461Z,2.01
2023-04-15T16:17:53.853Z,2.13
2023-04-15T16:20:20.260Z,2.32
2023-04-15T16:22:46.637Z,2.21
2023-04-15T16:25:12.981Z,2.23
2023-04-15T16:30:08.575Z,2.26
2023-04-15T16:32:34.900Z,2.23
2023-04-15T16:35:01.225Z,2.17
2023-04-15T16:37:27.620Z,2.17
2023-04-15T16:39:53.993Z,2.19
2023-04-15T16:42:20.312Z,2.45
2023-04-15T16:44:46.624Z,2.35
2023-04-15T16:47:12.995Z,2.34
2023-04-15T16:49:39.382Z,2.42
2023-04-15T16:52:05.737Z,2.23
2023-04-15T16:54:32.064Z,2.19
2023-04-15T16:56:58.448Z,2.38
2023-04-15T16:59:24.813Z,2.46
2023-04-15T17:01:51.204Z,2.37
2023-04-15T17:04:17.762Z,2.56
2023-04-15T17:06:44.156Z,2.71
2023-04-15T17:09:10.480Z,2.59
2023-04-15T17:11:36.797Z,2.47
2023-04-15T17:14:03.104Z,2.51
2023-04-15T17:16:29.471Z,2.58
2023-04-15T17:18:55.832Z,2.65
2023-04-15T17:21:22.153Z,2.67
2023-04-15T17:23:48.477Z,2.90
2023-04-15T17:26:14.778Z,2.77
2023-04-15T17:28:41.128Z,2.72
2023-04-15T17:31:07.512Z,2.87
2023-04-15T17:34:00.669Z,2.64
2023-04-15T17:36:20.313Z,2.65
2023-04-15T17:38:46.621Z,2.57
2023-04-15T17:41:12.945Z,2.55
2023-04-15T17:43:39.251Z,2.85
2023-04-15T17:46:05.619Z,2.96
2023-04-15T17:48:31.988Z,2.92
2023-04-15T17:50:58.320Z,2.97
2023-04-15T17:53:24.654Z,2.97
2023-04-15T17:55:51.005Z,2.80
2023-04-15T17:58:17.378Z,3.05
2023-04-15T18:00:43.751Z,3.11
2023-04-15T18:03:10.315Z,3.01
2023-04-15T18:05:36.786Z,2.98
2023-04-15T18:08:03.113Z,3.23
2023-04-15T18:10:29.509Z,3.17
2023-04-15T18:12:55.880Z,3.07
2023-04-15T18:15:22.241Z,3.24
2023-04-15T18:17:48.672Z,3.27
2023-04-15T18:20:15.050Z,3.24
2023-04-15T18:22:41.375Z,3.48
2023-04-15T18:25:07.727Z,3.65
2023-04-15T18:27:34.099Z,3.94
2023-04-15T18:30:00.582Z,4.03
2023-04-15T18:32:26.954Z,3.90
2023-04-15T18:34:53.359Z,3.83
2023-04-15T18:37:19.674Z,4.09
2023-04-15T18:39:46.003Z,4.06
2023-04-15T18:42:12.328Z,4.21
2023-04-15T18:44:38.714Z,4.44
2023-04-15T18:47:05.113Z,4.25
2023-04-15T18:49:31.434Z,4.23
2023-04-15T18:51:57.775Z,4.29
2023-04-15T18:54:24.210Z,4.43
2023-04-15T18:56:50.523Z,4.19
2023-04-15T18:59:28.744Z,4.34
2023-04-15T19:01:56.297Z,4.50
2023-04-15T19:04:22.722Z,5.07
2023-04-15T19:06:49.094Z,4.70
2023-04-15T19:09:15.496Z,4.92
2023-04-15T19:11:41.829Z,4.98
2023-04-15T19:14:08.205Z,4.76
2023-04-15T19:16:34.595Z,5.12
2023-04-15T19:19:00.999Z,5.16
2023-04-15T19:21:27.386Z,5.04
2023-04-15T19:23:53.745Z,5.14
2023-04-15T19:26:20.106Z,5.32
2023-04-15T19:28:46.420Z,5.08
2023-04-15T19:31:12.792Z,5.15
2023-04-15T19:33:39.187Z,5.24
2023-04-15T19:36:05.640Z,5.42
2023-04-15T19:38:31.961Z,5.34
2023-04-15T19:40:58.250Z,5.45
2023-04-15T19:43:24.606Z,5.42
2023-04-15T19:45:50.966Z,5.35
2023-04-15T19:48:17.295Z,5.64
2023-04-15T19:50:43.611Z,6.30
2023-04-15T19:53:09.905Z,6.28
2023-04-15T19:55:36.205Z,6.05
2023-04-15T19:58:02.569Z,6.37
2023-04-15T20:00:29.017Z,6.00
2023-04-15T20:02:55.439Z,6.04
2023-04-15T20:05:21.883Z,5.83
2023-04-15T20:07:48.235Z,5.78
2023-04-15T20:10:14.585Z,6.05
2023-04-15T20:12:49.679Z,5.94
2023-04-15T20:15:18.789Z,6.00
2023-04-15T20:17:45.185Z,5.74
2023-04-15T20:20:11.520Z,5.84
2023-04-15T20:22:37.871Z,5.95
2023-04-15T20:25:04.269Z,5.80
2023-04-15T20:27:30.642Z,5.67
2023-04-15T20:29:56.960Z,5.68
2023-04-15T20:32:23.330Z,6.06
2023-04-15T20:34:49.678Z,6.18
2023-04-15T20:37:16.032Z,6.25
2023-04-15T20:39:42.403Z,5.89
2023-04-15T20:42:08.755Z,6.06
2023-04-15T20:44:35.105Z,6.13
2023-04-15T20:47:01.469Z,6.12
2023-04-15T20:49:27.908Z,5.88
2023-04-15T20:51:54.260Z,6.23
2023-04-15T20:54:20.561Z,6.03
2023-04-15T20:56:47.016Z,5.78
2023-04-15T20:59:13.358Z,5.86
2023-04-15T21:01:39.746Z,5.99
2023-04-15T21:04:06.234Z,6.33
2023-04-15T21:06:32.601Z,6.01
2023-04-15T21:08:58.911Z,5.82
2023-04-15T21:11:43.062Z,5.94
2023-04-15T21:14:11.568Z,5.54
2023-04-15T21:16:38.053Z,5.97
2023-04-15T21:19:04.755Z,5.92
2023-04-15T21:21:31.358Z,5.57
2023-04-15T21:23:57.671Z,5.98
2023-04-15T21:26:23.975Z,5.91
2023-04-15T21:28:50.282Z,6.09
2023-04-15T21:31:16.674Z,5.70
2023-04-15T21:33:43.078Z,5.88
2023-04-15T21:36:09.403Z,5.96
2023-04-15T21:38:35.695Z,5.81
2023-04-15T21:41:02.040Z,5.75
2023-04-15T21:43:28.450Z,5.66
2023-04-15T21:46:24.344Z,5.57
2023-04-15T21:48:41.060Z,5.56
2023-04-15T21:51:07.396Z,5.63
2023-04-15T21:53:33.717Z,5.88
2023-04-15T21:56:00.041Z,5.60
2023-04-15T21:58:26.360Z,5.35
2023-04-15T22:00:52.754Z,5.33
2023-04-15T22:03:19.309Z,5.54
2023-04-15T22:05:45.785Z,5.66
2023-04-15T22:08:12.197Z,5.47
2023-04-15T22:10:38.570Z,5.47
2023-04-15T22:13:04.926Z,5.54
2023-04-15T22:15:31.341Z,5.40
2023-04-15T22:17:57.705Z,5.30
2023-04-15T22:20:24.054Z,5.06
2023-04-15T22:22:50.429Z,5.41
2023-04-15T22:25:20.821Z,5.06
2023-04-15T22:27:47.116Z,5.04
2023-04-15T22:30:13.437Z,5.14
2023-04-15T22:32:39.891Z,5.16
2023-04-15T22:35:06.245Z,5.58
2023-04-15T22:37:32.613Z,4.85
2023-04-15T22:39:59.005Z,5.05
2023-04-15T22:42:25.385Z,5.21
2023-04-15T22:44:51.725Z,5.10
2023-04-15T22:47:18.043Z,4.99
2023-04-15T22:49:44.361Z,4.69
2023-04-15T22:52:14.512Z,4.72
2023-04-15T22:54:46.488Z,4.83
2023-04-15T22:57:12.877Z,4.85
2023-04-15T22:59:39.189Z,4.52
2023-04-15T23:02:05.589Z,4.19
2023-04-15T23:04:32.112Z,4.28
2023-04-15T23:06:58.592Z,4.52
2023-04-15T23:09:24.970Z,4.48
2023-04-15T23:11:51.285Z,4.34
2023-04-15T23:14:17.597Z,4.41
2023-04-15T23:16:43.936Z,4.48
2023-04-15T23:19:10.437Z,4.10
2023-04-15T23:21:36.933Z,3.99
2023-04-15T23:24:03.314Z,3.88
2023-04-15T23:26:29.621Z,3.99
2023-04-15T23:28:55.941Z,3.92
2023-04-15T23:31:22.354Z,3.83
2023-04-15T23:33:48.774Z,3.91
2023-04-15T23:36:15.102Z,3.94
2023-04-15T23:38:41.463Z,4.03
2023-04-15T23:41:07.893Z,3.75
2023-04-15T23:43:34.213Z,3.56
2023-04-15T23:46:00.553Z,3.64
2023-04-15T23:48:26.909Z,3.64
2023-04-15T23:50:53.249Z,3.63
2023-04-15T23:53:19.574Z,3.72
2023-04-15T23:55:45.952Z,3.56
2023-04-15T23:58:12.251Z,3.49
